Time;durP1;ratioP1;P1;durP2;ratioP2;P2;SDS_P1;SDS_P2;PMS_P1;PMS_P2;Temp;Humidity;BMP_temperature;BMP_pressure;BME280_temperature;BME280_humidity;BME280_pressure;Samples;Min_cycle;Max_cycle;Signal;HPM_P1;HPM_P2
2021/12/21 00:00:48;;;;;;;11.80;4.63;;;;;;;4.14;100.00;100187.34;4957354;28;20041;-87
2021/12/21 00:03:14;;;;;;;10.20;4.35;;;;;;;4.38;100.00;100179.31;4948254;28;20031;-87
2021/12/21 00:05:41;;;;;;;8.80;3.80;;;;;;;4.37;100.00;100188.06;4948112;28;20445;-88
2021/12/21 00:08:09;;;;;;;12.13;4.43;;;;;;;4.21;100.00;100195.47;4988871;28;20030;-88
2021/12/21 00:10:35;;;;;;;10.15;4.10;;;;;;;4.24;100.00;100177.03;4945931;28;20027;-88
2021/12/21 00:13:08;;;;;;;13.57;4.55;;;;;;;4.01;100.00;100187.50;4942464;28;20393;-87
2021/12/21 00:18:38;;;;;;;12.82;4.68;;;;;;;3.84;100.00;100196.66;4902596;28;20040;-87
2021/12/21 00:23:34;;;;;;;10.48;4.53;;;;;;;3.82;100.00;100198.53;4976418;28;20117;-84
2021/12/21 00:26:12;;;;;;;16.90;5.32;;;;;;;3.76;100.00;100197.25;4943126;28;20354;-86
2021/12/21 00:29:02;;;;;;;14.68;5.32;;;;;;;3.71;100.00;100183.78;4943329;28;20033;-85
2021/12/21 00:31:28;;;;;;;8.88;4.63;;;;;;;3.66;100.00;100178.16;4974725;28;20051;-85
2021/12/21 00:33:54;;;;;;;16.63;5.22;;;;;;;3.64;100.00;100178.28;4956276;28;20111;-87
2021/12/21 00:36:23;;;;;;;13.38;5.22;;;;;;;4.08;100.00;100180.84;4976077;28;20097;-86
2021/12/21 00:38:57;;;;;;;13.38;5.60;;;;;;;4.15;100.00;100176.00;4943211;28;20089;-87
2021/12/21 00:41:24;;;;;;;13.13;4.75;;;;;;;4.08;100.00;100156.66;4942657;28;20125;-87
2021/12/21 00:43:50;;;;;;;11.80;4.53;;;;;;;4.20;100.00;100171.25;4957541;28;20396;-87
2021/12/21 00:46:16;;;;;;;9.38;4.75;;;;;;;4.16;100.00;100166.44;4957675;28;20031;-86
2021/12/21 00:48:52;;;;;;;12.05;4.10;;;;;;;3.99;100.00;100140.03;4973015;28;20041;-87
2021/12/21 00:51:20;;;;;;;7.65;3.90;;;;;;;4.17;100.00;100161.09;4958840;28;20034;-87
2021/12/21 00:53:45;;;;;;;14.02;4.82;;;;;;;4.16;100.00;100150.84;4943560;28;20070;-85
2021/12/21 00:56:14;;;;;;;12.63;4.53;;;;;;;4.27;100.00;100162.00;4959285;28;20042;-88
2021/12/21 00:58:40;;;;;;;12.30;4.80;;;;;;;4.17;100.00;100155.09;4945677;28;20053;-86
2021/12/21 01:01:07;;;;;;;10.07;4.32;;;;;;;3.87;100.00;100154.84;4961190;28;20066;-83
2021/12/21 01:03:35;;;;;;;9.80;5.30;;;;;;;3.71;100.00;100142.25;4947902;28;20042;-84
2021/12/21 01:06:13;;;;;;;16.02;6.13;;;;;;;4.05;100.00;100142.13;4985205;28;20026;-84
2021/12/21 01:11:30;;;;;;;16.45;5.75;;;;;;;4.12;100.00;100132.06;4983760;28;20055;-84
2021/12/21 01:14:09;;;;;;;10.15;5.43;;;;;;;4.16;100.00;100143.06;4960279;28;20057;-85
2021/12/21 01:19:18;;;;;;;15.25;4.93;;;;;;;3.72;100.00;100147.34;4958852;28;20027;-88
2021/12/21 01:21:57;;;;;;;9.48;4.70;;;;;;;3.56;100.00;100121.78;4941087;28;20477;-88
2021/12/21 01:24:33;;;;;;;10.13;4.95;;;;;;;3.71;100.00;100134.47;4941679;28;20038;-86
2021/12/21 01:32:54;;;;;;;14.98;5.43;;;;;;;3.64;100.00;100133.31;4971070;28;20396;-85
2021/12/21 01:35:35;;;;;;;10.38;5.78;;;;;;;3.66;100.00;100141.81;4958126;28;20031;-87
2021/12/21 01:51:10;;;;;;;11.10;4.70;;;;;;;3.85;100.00;100131.59;4974698;28;20556;-89
2021/12/21 01:53:36;;;;;;;14.18;5.03;;;;;;;4.11;100.00;100133.84;4956926;28;20031;-87
2021/12/21 01:56:04;;;;;;;15.52;5.80;;;;;;;4.16;100.00;100132.66;4973417;28;20032;-86
2021/12/21 01:58:30;;;;;;;16.95;7.00;;;;;;;4.04;100.00;100104.13;4955844;28;20062;-85
2021/12/21 02:00:55;;;;;;;14.23;6.53;;;;;;;4.18;100.00;100120.38;4962599;28;20054;-87
2021/12/21 02:03:21;;;;;;;13.15;6.82;;;;;;;4.05;100.00;100105.75;4956212;28;20109;-85
2021/12/21 02:05:47;;;;;;;19.13;6.47;;;;;;;3.48;100.00;100093.00;4972586;28;20441;-86
2021/12/21 02:08:13;;;;;;;10.18;5.47;;;;;;;3.54;100.00;100113.28;4973684;28;20121;-85
2021/12/21 02:10:39;;;;;;;16.13;6.18;;;;;;;3.50;100.00;100116.25;4972987;28;20031;-87
2021/12/21 02:13:05;;;;;;;17.35;6.38;;;;;;;3.45;100.00;100114.00;4956403;28;20492;-84
2021/12/21 02:15:31;;;;;;;16.25;5.90;;;;;;;3.46;100.00;100110.47;4957378;28;20039;-86
2021/12/21 02:20:51;;;;;;;10.55;5.05;;;;;;;3.49;100.00;100109.41;4954101;28;20117;-87
2021/12/21 02:23:23;;;;;;;8.77;5.00;;;;;;;3.54;100.00;100110.69;4955977;28;20030;-84
2021/12/21 02:30:56;;;;;;;15.30;5.65;;;;;;;3.54;100.00;100110.69;4971504;28;20117;-85
2021/12/21 02:33:25;;;;;;;13.77;5.50;;;;;;;3.51;100.00;100107.50;4943330;28;20113;-84
2021/12/21 02:35:51;;;;;;;15.95;6.25;;;;;;;3.49;100.00;100128.38;4959344;28;20058;-84
2021/12/21 02:38:18;;;;;;;12.45;6.05;;;;;;;3.52;100.00;100115.16;4943326;28;20094;-84
2021/12/21 02:40:45;;;;;;;14.57;6.65;;;;;;;3.52;100.00;100115.16;4942993;28;20034;-83
2021/12/21 02:43:10;;;;;;;13.35;6.10;;;;;;;3.47;100.00;100101.72;4956823;28;20043;-84
2021/12/21 02:45:38;;;;;;;15.98;6.57;;;;;;;3.51;100.00;100103.13;4959436;28;20066;-85
2021/12/21 02:48:04;;;;;;;18.00;7.93;;;;;;;3.96;100.00;100101.34;4943332;28;20108;-83
2021/12/21 02:50:30;;;;;;;14.93;7.85;;;;;;;3.61;100.00;100097.22;4958088;28;20085;-83
2021/12/21 02:52:55;;;;;;;12.68;6.90;;;;;;;3.47;100.00;100093.94;4959270;28;20429;-86
2021/12/21 02:55:23;;;;;;;18.23;7.78;;;;;;;3.79;100.00;100084.50;4959364;28;20093;-82
2021/12/21 02:57:48;;;;;;;15.73;7.85;;;;;;;3.92;100.00;100090.34;4958170;28;20113;-82
2021/12/21 03:00:15;;;;;;;13.40;8.50;;;;;;;4.00;100.00;100097.53;4959248;28;20030;-84
2021/12/21 03:02:40;;;;;;;22.38;9.38;;;;;;;3.93;100.00;100088.56;4943570;28;20497;-84
2021/12/21 03:05:06;;;;;;;16.17;8.60;;;;;;;3.83;100.00;100073.75;4958726;28;20041;-83
2021/12/21 03:10:02;;;;;;;20.52;9.20;;;;;;;3.99;100.00;100093.28;4959598;28;20034;-82
2021/12/21 03:13:52;;;;;;;13.73;8.48;;;;;;;3.96;100.00;100104.75;4942261;28;20062;-83
2021/12/21 03:15:23;;;;;;;16.05;8.18;;;;;;;3.88;100.00;100091.56;4975761;28;20059;-84
2021/12/21 03:17:50;;;;;;;17.95;8.18;;;;;;;3.66;100.00;100105.44;4958244;28;20042;-84
2021/12/21 03:20:16;;;;;;;19.48;7.60;;;;;;;3.43;100.00;100080.38;4941809;28;20027;-84
2021/12/21 03:22:42;;;;;;;14.00;8.38;;;;;;;3.47;100.00;100096.53;4947669;28;20438;-83
2021/12/21 03:25:08;;;;;;;19.45;8.80;;;;;;;3.40;100.00;100105.75;4958694;28;20057;-85
2021/12/21 03:27:34;;;;;;;15.93;8.23;;;;;;;3.76;100.00;100085.59;4957596;28;20035;-86
2021/12/21 03:30:00;;;;;;;15.90;8.00;;;;;;;3.92;100.00;100089.53;4976298;28;20030;-84
2021/12/21 03:32:26;;;;;;;13.38;7.68;;;;;;;3.59;100.00;100088.72;4959101;28;20037;-84
2021/12/21 03:34:52;;;;;;;16.63;7.80;;;;;;;3.49;100.00;100097.22;4942537;28;20031;-83
2021/12/21 03:37:17;;;;;;;12.10;6.93;;;;;;;3.46;100.00;100088.88;4958604;28;20081;-85
2021/12/21 03:39:45;;;;;;;12.30;7.43;;;;;;;3.48;100.00;100087.00;4943196;28;20037;-84
2021/12/21 03:42:13;;;;;;;14.50;7.57;;;;;;;3.50;100.00;100096.28;4975849;28;20441;-83
2021/12/21 03:44:39;;;;;;;16.33;6.72;;;;;;;3.48;100.00;100093.00;4958506;28;20031;-85
2021/12/21 03:47:09;;;;;;;16.17;6.63;;;;;;;3.43;100.00;100088.16;4942634;28;20027;-86
2021/12/21 03:52:13;;;;;;;18.17;6.95;;;;;;;3.37;100.00;100077.47;4957676;28;20096;-84
2021/12/21 03:54:41;;;;;;;13.45;6.85;;;;;;;3.35;100.00;100074.16;4958600;28;20397;-84
2021/12/21 03:57:07;;;;;;;12.75;6.25;;;;;;;3.40;100.00;100079.81;4958000;28;20034;-83
2021/12/21 03:59:32;;;;;;;10.48;7.28;;;;;;;3.41;100.00;100078.84;4957873;28;20035;-85
2021/12/21 04:01:58;;;;;;;17.13;7.95;;;;;;;3.39;100.00;100073.78;4958843;28;20046;-83
2021/12/21 04:04:25;;;;;;;14.90;7.88;;;;;;;3.36;100.00;100068.84;4958552;28;20037;-85
2021/12/21 04:06:50;;;;;;;11.70;6.85;;;;;;;3.38;100.00;100076.50;4958905;28;20027;-83
2021/12/21 04:09:17;;;;;;;17.45;7.45;;;;;;;3.35;100.00;100056.00;4958463;28;20041;-84
2021/12/21 04:11:43;;;;;;;11.65;7.13;;;;;;;3.47;100.00;100065.38;4975218;28;20780;-86
2021/12/21 04:14:10;;;;;;;16.63;7.47;;;;;;;3.94;100.00;100072.88;4942525;28;20043;-85
2021/12/21 04:16:39;;;;;;;18.77;8.27;;;;;;;3.90;100.00;100055.06;4942576;28;20042;-86
2021/12/21 04:19:06;;;;;;;16.33;9.40;;;;;;;3.74;100.00;100039.91;4958132;28;20477;-84
2021/12/21 04:21:32;;;;;;;20.83;10.52;;;;;;;3.34;100.00;100055.16;4975367;28;20026;-86
2021/12/21 04:23:58;;;;;;;15.05;9.07;;;;;;;3.33;100.00;100057.88;4974864;28;20034;-85
2021/12/21 04:26:24;;;;;;;17.05;9.30;;;;;;;3.13;100.00;100044.69;4975251;28;20408;-83
2021/12/21 04:28:49;;;;;;;17.08;9.15;;;;;;;3.19;100.00;100057.22;4956707;28;20034;-85
2021/12/21 04:31:16;;;;;;;16.98;8.75;;;;;;;3.25;100.00;100059.31;4974742;28;20070;-85
2021/12/21 04:33:43;;;;;;;16.13;8.65;;;;;;;3.29;100.00;100065.91;4941652;28;20558;-85
2021/12/21 04:36:10;;;;;;;14.23;7.55;;;;;;;3.22;100.00;100059.56;4956140;28;20042;-84
2021/12/21 04:38:39;;;;;;;18.33;7.97;;;;;;;3.21;100.00;100046.69;4941434;28;20030;-82
2021/12/21 04:41:13;;;;;;;17.00;7.18;;;;;;;3.18;100.00;100050.38;4941639;28;20031;-84
2021/12/21 04:43:41;;;;;;;11.30;6.13;;;;;;;3.26;100.00;100052.38;4955282;28;20884;-86
2021/12/21 04:46:07;;;;;;;16.63;6.80;;;;;;;3.31;100.00;100062.34;4941604;28;20037;-86
2021/12/21 04:48:33;;;;;;;10.00;6.35;;;;;;;3.25;100.00;100061.09;4942127;28;20114;-84
2021/12/21 04:50:59;;;;;;;12.02;6.65;;;;;;;3.11;100.00;100038.81;4942869;28;20545;-85
2021/12/21 04:53:25;;;;;;;12.20;7.15;;;;;;;3.18;100.00;100041.75;4960014;28;20041;-86
2021/12/21 04:55:51;;;;;;;16.98;7.80;;;;;;;3.12;100.00;100035.28;4971261;28;20039;-85
2021/12/21 04:58:17;;;;;;;13.30;8.18;;;;;;;3.53;100.00;100041.50;4974544;28;20090;-85
2021/12/21 05:00:43;;;;;;;13.32;8.00;;;;;;;3.65;100.00;100041.47;4969983;28;20074;-85
2021/12/21 05:03:09;;;;;;;12.50;6.80;;;;;;;3.70;100.00;100039.34;4968702;28;20039;-84
2021/12/21 05:05:34;;;;;;;14.43;7.00;;;;;;;3.74;100.00;100029.53;4959268;28;20496;-84
2021/12/21 05:08:08;;;;;;;15.75;6.75;;;;;;;3.23;100.00;100032.66;4977068;28;20039;-84
2021/12/21 05:10:53;;;;;;;11.68;6.75;;;;;;;3.21;100.00;100039.75;4955562;28;20038;-86
2021/12/21 05:13:22;;;;;;;21.40;6.78;;;;;;;3.62;100.00;100044.34;4958473;28;20385;-86
2021/12/21 05:15:48;;;;;;;9.60;5.38;;;;;;;3.50;100.00;100017.59;4956737;28;20053;-86
2021/12/21 05:18:15;;;;;;;13.98;5.75;;;;;;;3.61;100.00;100035.72;4940144;28;20039;-84
2021/12/21 05:20:41;;;;;;;13.18;5.72;;;;;;;3.59;100.00;100048.00;4974558;28;20023;-84
2021/12/21 05:23:08;;;;;;;13.07;5.28;;;;;;;3.39;100.00;100047.00;4957237;28;20062;-84
2021/12/21 05:25:34;;;;;;;14.23;5.60;;;;;;;3.05;100.00;100028.94;4940839;28;20082;-83
2021/12/21 05:28:00;;;;;;;17.73;5.25;;;;;;;3.08;100.00;100050.28;4957327;28;20044;-84
2021/12/21 05:30:27;;;;;;;10.98;6.28;;;;;;;2.96;100.00;100026.13;4973755;28;20058;-85
2021/12/21 05:32:54;;;;;;;14.00;5.03;;;;;;;2.99;100.00;100020.69;4957265;28;20030;-82
2021/12/21 05:35:20;;;;;;;11.10;5.30;;;;;;;2.89;100.00;100022.34;4956873;28;20045;-85
2021/12/21 05:37:48;;;;;;;10.10;4.90;;;;;;;3.03;100.00;100036.00;4940152;28;20129;-84
2021/12/21 05:40:16;;;;;;;10.32;4.85;;;;;;;3.05;100.00;100034.13;4957100;28;20023;-85
2021/12/21 05:42:44;;;;;;;15.38;5.88;;;;;;;2.92;100.00;100019.50;4973161;28;20869;-84
2021/12/21 05:45:12;;;;;;;11.95;5.70;;;;;;;3.03;100.00;100025.63;4973600;28;20532;-82
2021/12/21 05:47:38;;;;;;;10.90;4.75;;;;;;;3.00;100.00;100026.69;4940791;28;20122;-84
2021/12/21 05:50:08;;;;;;;11.63;5.18;;;;;;;2.81;100.00;100011.75;4956662;28;20070;-84
2021/12/21 05:52:34;;;;;;;14.25;4.70;;;;;;;2.92;100.00;100037.66;4974320;28;20382;-85
2021/12/21 05:54:59;;;;;;;13.75;5.65;;;;;;;2.83;100.00;100015.88;4956385;28;20033;-86
2021/12/21 05:57:25;;;;;;;15.07;5.50;;;;;;;2.92;100.00;100035.06;4956452;28;20043;-86
2021/12/21 05:59:51;;;;;;;10.35;5.10;;;;;;;2.79;100.00;100008.47;4939565;28;20436;-86
2021/12/21 06:02:17;;;;;;;16.02;5.03;;;;;;;2.66;100.00;100012.00;4973962;28;20018;-86
2021/12/21 06:04:43;;;;;;;14.82;5.35;;;;;;;2.83;100.00;100033.22;4959839;28;20086;-85
2021/12/21 06:07:09;;;;;;;9.77;4.68;;;;;;;2.76;100.00;100013.91;4957166;28;20085;-84
2021/12/21 06:09:35;;;;;;;10.13;4.25;;;;;;;2.84;100.00;100032.25;4960227;28;20517;-87
2021/12/21 06:22:52;;;;;;;11.73;4.95;;;;;;;2.88;100.00;100049.22;4983126;28;20452;-85
2021/12/21 06:28:07;;;;;;;7.55;3.88;;;;;;;2.87;100.00;100051.97;4961199;28;20034;-88
2021/12/21 06:30:34;;;;;;;12.02;4.32;;;;;;;2.86;100.00;100051.13;4943736;28;20030;-86
2021/12/21 06:33:00;;;;;;;11.75;4.40;;;;;;;2.76;100.00;100042.41;4944603;28;20061;-86
2021/12/21 06:35:25;;;;;;;9.40;4.30;;;;;;;2.85;100.00;100046.88;4966602;28;20109;-84
2021/12/21 06:37:51;;;;;;;13.60;4.57;;;;;;;2.84;100.00;100040.03;4960340;28;20477;-84
2021/12/21 06:40:17;;;;;;;7.85;4.63;;;;;;;2.80;100.00;100025.69;4947146;28;20472;-84
2021/12/21 06:42:45;;;;;;;10.77;4.30;;;;;;;2.74;100.00;100026.13;4945080;28;20050;-84
2021/12/21 06:45:24;;;;;;;10.75;4.72;;;;;;;2.75;100.00;100022.59;4990036;28;20027;-83
2021/12/21 06:53:18;;;;;;;10.60;6.03;;;;;;;2.93;100.00;100028.94;4990193;28;20405;-85
2021/12/21 06:55:44;;;;;;;5.97;4.90;;;;;;;2.90;100.00;100031.78;4961703;28;20035;-84
2021/12/21 06:58:10;;;;;;;9.68;5.57;;;;;;;2.93;100.00;100036.72;4988265;28;20034;-86
2021/12/21 07:00:36;;;;;;;16.77;6.78;;;;;;;2.87;100.00;100032.03;4963598;28;20030;-85
2021/12/21 07:03:01;;;;;;;11.10;6.15;;;;;;;2.92;100.00;100034.25;4952821;28;20030;-84
2021/12/21 07:05:28;;;;;;;11.40;5.47;;;;;;;2.93;100.00;100031.53;4959155;28;20485;-84
2021/12/21 07:07:54;;;;;;;11.88;6.15;;;;;;;2.95;100.00;100029.66;4943801;28;20412;-84
2021/12/21 07:10:24;;;;;;;12.80;6.20;;;;;;;2.94;100.00;100017.63;4983031;28;20144;-84
2021/12/21 07:20:29;;;;;;;10.80;6.25;;;;;;;3.47;100.00;100033.44;4961631;28;20039;-85
2021/12/21 07:22:55;;;;;;;15.93;6.80;;;;;;;3.53;100.00;100038.13;4959141;28;20035;-84
2021/12/21 07:25:21;;;;;;;17.27;6.60;;;;;;;3.59;100.00;100021.22;4988712;28;20018;-84
2021/12/21 07:27:47;;;;;;;14.13;7.10;;;;;;;3.61;100.00;100019.31;4984025;28;20038;-83
2021/12/21 07:30:13;;;;;;;13.65;7.05;;;;;;;3.54;100.00;100012.03;4941326;28;20019;-86
2021/12/21 07:32:39;;;;;;;12.63;7.45;;;;;;;3.59;100.00;100010.84;4959040;28;20449;-84
2021/12/21 07:35:06;;;;;;;10.23;6.78;;;;;;;3.59;100.00;100029.00;4958992;28;20058;-85
2021/12/21 07:37:31;;;;;;;9.15;6.85;;;;;;;3.49;100.00;100027.16;4958328;28;20501;-86
2021/12/21 07:39:57;;;;;;;10.15;7.05;;;;;;;3.50;100.00;100025.38;4958652;28;20034;-85
2021/12/21 07:42:23;;;;;;;12.25;6.90;;;;;;;3.49;100.00;100029.75;4942803;28;20117;-85
2021/12/21 07:44:49;;;;;;;10.98;6.38;;;;;;;3.50;100.00;100023.59;4975002;28;20101;-84
2021/12/21 07:47:17;;;;;;;10.60;6.15;;;;;;;3.68;100.00;100015.25;4942228;28;20062;-82
2021/12/21 07:49:42;;;;;;;9.25;5.88;;;;;;;3.83;100.00;100019.22;4948549;28;20066;-83
2021/12/21 07:52:09;;;;;;;9.30;6.00;;;;;;;3.84;100.00;100025.25;4958030;28;20055;-83
2021/12/21 07:54:35;;;;;;;9.88;5.55;;;;;;;3.84;100.00;100028.66;4959994;28;20026;-84
2021/12/21 07:57:01;;;;;;;12.30;6.57;;;;;;;3.72;100.00;100021.84;4941511;28;20131;-83
2021/12/21 07:59:27;;;;;;;18.98;6.75;;;;;;;3.74;100.00;100029.53;4941652;28;20477;-83
2021/12/21 08:01:55;;;;;;;11.00;6.25;;;;;;;3.63;100.00;100007.84;4959824;28;20055;-84
2021/12/21 08:04:26;;;;;;;8.77;5.65;;;;;;;3.86;100.00;100029.34;4957317;28;20077;-83
2021/12/21 08:06:53;;;;;;;11.18;6.03;;;;;;;3.86;100.00;100028.53;4958156;28;20041;-84
2021/12/21 08:09:19;;;;;;;7.13;5.65;;;;;;;3.82;100.00;100017.56;4959935;28;20386;-83
2021/12/21 08:12:27;;;;;;;9.27;5.30;;;;;;;3.93;100.00;100018.44;4957238;28;20061;-84
2021/12/21 08:14:34;;;;;;;9.80;5.88;;;;;;;3.86;100.00;100012.94;4968867;28;20030;-82
2021/12/21 08:17:00;;;;;;;8.13;5.60;;;;;;;3.81;100.00;100004.69;4957933;28;20942;-85
2021/12/21 08:19:25;;;;;;;7.93;5.05;;;;;;;4.02;100.00;100029.84;4941130;28;20033;-84
2021/12/21 08:21:51;;;;;;;11.27;5.68;;;;;;;3.70;100.00;100039.34;4957862;28;20030;-84
2021/12/21 08:24:17;;;;;;;8.85;5.13;;;;;;;3.62;100.00;100034.75;4976422;28;20393;-83
2021/12/21 08:26:42;;;;;;;11.02;6.38;;;;;;;3.53;100.00;100018.16;4960023;28;20034;-84
2021/12/21 08:29:08;;;;;;;11.60;6.90;;;;;;;3.59;100.00;100032.41;4942146;28;20030;-85
2021/12/21 08:31:34;;;;;;;9.10;5.82;;;;;;;3.60;100.00;100021.09;4954697;28;20121;-85
2021/12/21 08:34:00;;;;;;;14.35;6.90;;;;;;;3.78;100.00;100043.91;4944560;28;20117;-84
2021/12/21 08:36:26;;;;;;;8.52;6.40;;;;;;;4.02;100.00;100025.47;4959089;28;20110;-84
2021/12/21 08:38:51;;;;;;;12.25;6.80;;;;;;;4.04;100.00;100018.38;4985920;28;20035;-85
2021/12/21 08:41:17;;;;;;;12.05;6.68;;;;;;;3.94;100.00;100000.13;4989303;28;20062;-85
2021/12/21 08:43:43;;;;;;;10.25;6.18;;;;;;;3.97;100.00;100014.66;4958553;28;20042;-83
2021/12/21 08:46:09;;;;;;;8.43;6.28;;;;;;;3.99;100.00;100015.34;4972308;28;20034;-85
2021/12/21 08:48:37;;;;;;;8.10;6.00;;;;;;;4.11;100.00;100035.09;4982615;28;20031;-85
2021/12/21 08:51:04;;;;;;;12.60;5.82;;;;;;;4.10;100.00;100019.66;4945806;28;20042;-85
2021/12/21 08:53:31;;;;;;;11.30;6.45;;;;;;;4.14;100.00;100021.88;4943444;28;20031;-83
2021/12/21 08:55:57;;;;;;;8.98;5.72;;;;;;;4.11;100.00;100013.50;4942232;28;20536;-85
2021/12/21 08:58:23;;;;;;;12.38;6.90;;;;;;;4.18;100.00;100029.41;4972977;28;20109;-84
2021/12/21 09:00:51;;;;;;;10.70;6.05;;;;;;;4.19;100.00;100033.66;4984311;28;20045;-83
2021/12/21 09:03:19;;;;;;;8.57;6.18;;;;;;;4.11;100.00;100029.91;4967925;28;20030;-87
2021/12/21 09:05:45;;;;;;;9.13;6.03;;;;;;;4.14;100.00;100032.28;4945101;28;20029;-86
2021/12/21 09:08:11;;;;;;;10.35;5.57;;;;;;;3.93;100.00;100005.44;4962076;28;20097;-86
2021/12/21 09:10:39;;;;;;;9.93;6.10;;;;;;;4.08;100.00;100044.94;4946556;28;20030;-85
2021/12/21 09:13:06;;;;;;;9.73;4.97;;;;;;;3.94;100.00;100026.13;4955534;28;20117;-84
2021/12/21 09:15:31;;;;;;;7.88;4.35;;;;;;;3.95;100.00;100029.56;4958269;28;20528;-86
2021/12/21 09:17:59;;;;;;;8.70;4.22;;;;;;;3.94;100.00;100005.34;4957819;28;20393;-85
2021/12/21 09:20:28;;;;;;;9.55;4.60;;;;;;;3.98;100.00;100013.69;4957212;28;20022;-82
2021/12/21 09:22:54;;;;;;;10.45;4.45;;;;;;;4.17;100.00;100028.56;4973761;28;20035;-82
2021/12/21 09:25:20;;;;;;;5.72;4.10;;;;;;;4.16;100.00;100028.72;4941651;28;20031;-87
2021/12/21 09:27:47;;;;;;;7.28;4.20;;;;;;;4.13;100.00;100024.59;4959645;28;20029;-85
2021/12/21 09:30:15;;;;;;;8.45;4.30;;;;;;;4.06;100.00;100021.66;4957430;28;20027;-85
2021/12/21 09:32:41;;;;;;;10.00;4.97;;;;;;;4.05;100.00;100027.00;4957341;28;20030;-85
2021/12/21 09:35:08;;;;;;;12.38;4.30;;;;;;;4.18;100.00;100042.41;4957855;28;20039;-84
2021/12/21 09:37:34;;;;;;;9.40;4.03;;;;;;;4.15;100.00;100040.88;4959143;28;20062;-88
2021/12/21 09:40:02;;;;;;;8.65;4.68;;;;;;;3.77;100.00;100024.91;4958176;28;20093;-83
2021/12/21 09:42:32;;;;;;;6.85;4.72;;;;;;;3.96;100.00;100044.19;4942133;28;20030;-89
2021/12/21 09:44:58;;;;;;;8.30;5.30;;;;;;;4.14;100.00;100050.47;4943744;28;20503;-85
2021/12/21 09:47:26;;;;;;;7.78;4.90;;;;;;;4.18;100.00;100047.59;4960381;28;20113;-84
2021/12/21 09:49:53;;;;;;;7.50;5.60;;;;;;;4.19;100.00;100047.44;4940515;28;20034;-85
2021/12/21 09:52:29;;;;;;;8.85;6.18;;;;;;;4.11;100.00;100032.50;4965210;28;20449;-85
2021/12/21 09:54:57;;;;;;;17.00;6.10;;;;;;;4.32;100.00;100055.03;4983267;28;20034;-82
2021/12/21 09:57:23;;;;;;;11.25;5.82;;;;;;;4.12;100.00;100057.53;4956553;28;20034;-83
2021/12/21 09:59:49;;;;;;;9.90;5.60;;;;;;;4.27;100.00;100058.06;4956634;28;20503;-83
2021/12/21 10:02:21;;;;;;;10.05;5.78;;;;;;;4.32;100.00;100047.25;4955616;28;20434;-84
2021/12/21 10:04:55;;;;;;;10.73;5.25;;;;;;;4.31;100.00;100053.41;4957197;28;20031;-85
2021/12/21 10:07:22;;;;;;;10.18;5.53;;;;;;;4.23;100.00;100048.88;4956892;28;20535;-84
2021/12/21 10:09:50;;;;;;;9.63;5.40;;;;;;;4.21;100.00;100034.34;4941584;28;20097;-83
2021/12/21 10:12:30;;;;;;;12.38;5.55;;;;;;;4.42;100.00;100044.69;4954425;28;20031;-83
2021/12/21 10:15:11;;;;;;;9.95;5.57;;;;;;;4.41;100.00;100054.28;4956919;28;20051;-84
2021/12/21 10:17:46;;;;;;;10.30;5.15;;;;;;;4.41;100.00;100062.09;4940378;28;20066;-84
2021/12/21 10:20:13;;;;;;;11.32;5.32;;;;;;;4.42;100.00;100061.13;4957210;28;20034;-83
2021/12/21 10:22:50;;;;;;;10.38;4.95;;;;;;;4.38;100.00;100048.50;4955528;28;20540;-84
2021/12/21 10:25:16;;;;;;;8.02;5.63;;;;;;;4.51;100.00;100056.09;4940455;28;20088;-84
2021/12/21 10:27:45;;;;;;;12.93;5.70;;;;;;;4.59;100.00;100048.47;4941890;28;20119;-84
2021/12/21 10:30:12;;;;;;;8.80;5.25;;;;;;;4.63;100.00;100046.47;4973607;28;20067;-83
2021/12/21 10:32:49;;;;;;;8.73;5.18;;;;;;;4.39;100.00;100039.75;4980468;28;20121;-84
2021/12/21 10:35:15;;;;;;;7.95;4.95;;;;;;;4.54;100.00;100045.47;4955980;28;20035;-83
2021/12/21 10:37:42;;;;;;;14.43;5.43;;;;;;;4.50;100.00;100036.25;4974344;28;20027;-83
2021/12/21 10:40:24;;;;;;;9.63;4.85;;;;;;;4.07;100.00;100033.72;4958894;28;20026;-84
2021/12/21 10:43:07;;;;;;;14.50;5.68;;;;;;;4.02;100.00;100033.28;4960205;28;20042;-83
2021/12/21 10:45:38;;;;;;;8.67;5.00;;;;;;;4.11;100.00;100024.69;4958771;28;20477;-83
2021/12/21 10:48:08;;;;;;;7.45;5.00;;;;;;;4.07;100.00;100031.09;4957566;28;20106;-83
2021/12/21 10:50:34;;;;;;;7.03;4.95;;;;;;;4.17;100.00;100028.56;4943854;28;20036;-82
2021/12/21 10:53:02;;;;;;;7.90;5.22;;;;;;;4.13;100.00;100014.19;4958543;28;20046;-83
2021/12/21 10:55:35;;;;;;;8.82;5.32;;;;;;;4.03;100.00;100027.13;4991648;28;20027;-83
2021/12/21 10:58:15;;;;;;;9.80;5.50;;;;;;;3.95;100.00;100019.97;4961674;28;20085;-83
2021/12/21 11:00:57;;;;;;;10.18;6.30;;;;;;;4.09;100.00;100020.59;4990233;28;20026;-82
2021/12/21 11:03:52;;;;;;;11.93;6.00;;;;;;;4.28;100.00;100017.28;4940465;28;20058;-84
2021/12/21 11:06:25;;;;;;;9.38;6.60;;;;;;;4.33;100.00;100017.72;4977148;28;20073;-84
2021/12/21 11:08:54;;;;;;;11.90;6.03;;;;;;;4.36;100.00;100007.06;4959617;28;20023;-83
2021/12/21 11:11:47;;;;;;;10.55;6.00;;;;;;;4.47;100.00;100019.16;4943606;28;20039;-85
2021/12/21 11:14:17;;;;;;;9.38;6.53;;;;;;;4.52;100.00;100018.75;4959784;28;20034;-82
2021/12/21 11:16:49;;;;;;;12.27;6.95;;;;;;;4.31;100.00;99990.22;4957833;28;20681;-83
2021/12/21 11:19:18;;;;;;;11.93;6.47;;;;;;;4.47;100.00;100007.91;4942843;28;20046;-83
2021/12/21 11:22:07;;;;;;;9.55;6.53;;;;;;;4.52;100.00;99997.94;4960909;28;20114;-83
2021/12/21 11:24:37;;;;;;;9.50;6.18;;;;;;;4.34;100.00;99962.19;4984738;28;20036;-82
2021/12/21 11:27:03;;;;;;;12.82;6.70;;;;;;;4.56;100.00;99988.94;4982886;28;20078;-81
2021/12/21 11:29:31;;;;;;;11.27;7.18;;;;;;;4.67;100.00;99978.41;4984770;28;20026;-82
2021/12/21 11:32:01;;;;;;;12.15;8.07;;;;;;;4.84;100.00;99989.97;4978826;28;20034;-82
2021/12/21 11:34:34;;;;;;;14.05;7.95;;;;;;;4.98;100.00;99988.78;4944176;28;20030;-84
2021/12/21 11:39:45;;;;;;;13.23;8.10;;;;;;;5.08;100.00;99987.94;4974007;28;20367;-80
2021/12/21 11:42:20;;;;;;;14.85;8.18;;;;;;;5.04;100.00;99966.59;4965165;28;20061;-83
2021/12/21 11:44:56;;;;;;;11.40;7.97;;;;;;;5.18;100.00;99973.19;4942939;28;20122;-81
2021/12/21 11:47:34;;;;;;;11.82;9.00;;;;;;;5.03;100.00;99987.53;4936922;28;20034;-83
2021/12/21 11:50:08;;;;;;;17.40;9.52;;;;;;;5.02;100.00;99978.09;4942073;28;20385;-81
2021/12/21 11:52:45;;;;;;;15.02;10.15;;;;;;;4.99;100.00;99980.00;4943699;28;20042;-81
2021/12/21 11:55:16;;;;;;;19.25;11.50;;;;;;;4.87;100.00;99960.25;4977690;28;20042;-81
2021/12/21 11:57:46;;;;;;;23.48;12.40;;;;;;;4.39;100.00;99983.41;4958781;28;20408;-80
2021/12/21 12:00:22;;;;;;;22.52;12.77;;;;;;;4.33;100.00;99983.94;4959917;28;20417;-81
2021/12/21 12:02:50;;;;;;;23.02;12.50;;;;;;;4.23;100.00;99977.84;4960108;28;20026;-85
2021/12/21 12:05:20;;;;;;;16.10;11.85;;;;;;;4.11;100.00;99964.94;4957258;28;20033;-86
2021/12/21 12:08:04;;;;;;;18.15;12.10;;;;;;;4.19;100.00;99976.47;4956649;28;20468;-85
2021/12/21 12:10:32;;;;;;;18.33;12.55;;;;;;;4.05;100.00;99952.47;4963581;28;20880;-84
2021/12/21 12:13:09;;;;;;;21.92;13.45;;;;;;;4.25;100.00;99968.16;4943513;28;20545;-86
2021/12/21 12:15:51;;;;;;;20.38;13.70;;;;;;;4.30;100.00;99973.78;4961157;28;20122;-86
2021/12/21 12:18:33;;;;;;;26.30;15.45;;;;;;;4.35;100.00;99971.63;4956601;28;20053;-85
2021/12/21 12:21:11;;;;;;;29.58;17.85;;;;;;;4.22;100.00;99956.22;4943435;28;20122;-84
2021/12/21 12:23:52;;;;;;;31.33;18.55;;;;;;;4.36;100.00;99975.88;4955273;28;20061;-85
2021/12/21 12:26:31;;;;;;;27.05;17.00;;;;;;;4.29;100.00;99951.34;4973943;28;20041;-82
2021/12/21 12:29:15;;;;;;;29.13;17.75;;;;;;;4.29;100.00;99966.94;4981066;28;20023;-84
2021/12/21 12:31:47;;;;;;;33.08;17.67;;;;;;;4.38;100.00;99945.38;4955101;28;20054;-85
2021/12/21 12:34:23;;;;;;;26.10;17.98;;;;;;;4.18;100.00;99939.25;4957974;28;20031;-84
2021/12/21 12:36:51;;;;;;;24.52;16.20;;;;;;;4.27;100.00;99937.66;4956448;28;20042;-84
2021/12/21 12:39:36;;;;;;;25.58;17.10;;;;;;;4.29;100.00;99956.53;4960087;28;20032;-84